Time;durP1;ratioP1;P1;durP2;ratioP2;P2;SDS_P1;SDS_P2;PMS_P1;PMS_P2;Temp;Humidity;BMP_temperature;BMP_pressure;BME280_temperature;BME280_humidity;BME280_pressure;Samples;Min_cycle;Max_cycle;Signal;HPM_P1;HPM_P2
2024/02/28 00:01:50;;;;;;;13.75;6.97;;;;;;;;;;5075446;28;20252;-63
2024/02/28 00:04:19;;;;;;;13.30;7.43;;;;;;;;;;5078699;28;20540;-61
2024/02/28 00:06:48;;;;;;;13.00;7.07;;;;;;;;;;5078032;28;20044;-62
2024/02/28 00:09:16;;;;;;;15.35;7.93;;;;;;;;;;5082019;28;20151;-61
2024/02/28 00:11:45;;;;;;;14.27;7.75;;;;;;;;;;5077894;28;20533;-62
2024/02/28 00:14:14;;;;;;;12.40;6.47;;;;;;;;;;5077888;28;20049;-62
2024/02/28 00:16:42;;;;;;;13.82;7.45;;;;;;;;;;5087003;28;20492;-62
2024/02/28 00:19:12;;;;;;;16.55;7.65;;;;;;;;;;5073539;28;20540;-62
2024/02/28 00:21:41;;;;;;;13.23;7.53;;;;;;;;;;5077118;28;20056;-61
2024/02/28 00:24:10;;;;;;;12.10;7.13;;;;;;;;;;5078022;28;20138;-62
2024/02/28 00:26:39;;;;;;;13.82;7.85;;;;;;;;;;5076046;28;20052;-65
2024/02/28 00:29:07;;;;;;;15.13;7.78;;;;;;;;;;5076222;28;20473;-62
2024/02/28 00:31:36;;;;;;;13.15;7.05;;;;;;;;;;5080570;28;20075;-61
2024/02/28 00:34:04;;;;;;;13.20;7.25;;;;;;;;;;5079614;28;20107;-64
2024/02/28 00:36:34;;;;;;;13.18;6.28;;;;;;;;;;5073249;28;20048;-63
2024/02/28 00:39:19;;;;;;;12.50;7.30;;;;;;;;;;5077671;28;20496;-62
2024/02/28 00:41:47;;;;;;;12.52;7.55;;;;;;;;;;5070629;28;20508;-61
2024/02/28 00:44:16;;;;;;;12.07;7.20;;;;;;;;;;5078287;28;20101;-63
2024/02/28 00:46:44;;;;;;;13.63;8.05;;;;;;;;;;5073677;28;20046;-62
2024/02/28 00:49:12;;;;;;;12.50;7.20;;;;;;;;;;5084555;28;20101;-62
2024/02/28 00:51:42;;;;;;;13.32;6.82;;;;;;;;;;5076086;28;20490;-62
2024/02/28 00:54:11;;;;;;;13.38;7.18;;;;;;;;;;5080021;28;20167;-62
2024/02/28 00:56:39;;;;;;;15.52;7.45;;;;;;;;;;5077997;28;20050;-61
2024/02/28 00:59:10;;;;;;;14.45;6.78;;;;;;;;;;5083702;28;20044;-62
2024/02/28 01:01:39;;;;;;;11.52;7.05;;;;;;;;;;5078499;28;20141;-63
2024/02/28 01:04:07;;;;;;;13.40;7.35;;;;;;;;;;5078361;28;20075;-62
2024/02/28 01:06:37;;;;;;;13.82;7.50;;;;;;;;;;5080765;28;20114;-62
2024/02/28 01:09:07;;;;;;;14.40;7.63;;;;;;;;;;5080148;28;20056;-62
2024/02/28 01:11:35;;;;;;;12.23;6.93;;;;;;;;;;5071570;28;20077;-61
2024/02/28 01:14:04;;;;;;;13.23;6.88;;;;;;;;;;5079771;28;20121;-62
2024/02/28 01:16:32;;;;;;;13.73;7.30;;;;;;;;;;5075729;28;20141;-62
2024/02/28 01:19:00;;;;;;;13.30;7.63;;;;;;;;;;5078585;28;20072;-61
2024/02/28 01:21:29;;;;;;;13.00;7.03;;;;;;;;;;5077859;28;20044;-63
2024/02/28 01:23:57;;;;;;;13.23;7.60;;;;;;;;;;5069942;28;20049;-62
2024/02/28 01:26:27;;;;;;;13.82;7.78;;;;;;;;;;5071960;28;20044;-63
2024/02/28 01:28:55;;;;;;;11.38;7.07;;;;;;;;;;5070995;28;20555;-62
2024/02/28 01:31:24;;;;;;;13.32;7.80;;;;;;;;;;5069892;28;20122;-61
2024/02/28 01:33:52;;;;;;;13.38;7.93;;;;;;;;;;5066760;28;20049;-62
2024/02/28 01:36:21;;;;;;;14.85;7.75;;;;;;;;;;5070445;28;20052;-62
2024/02/28 01:38:49;;;;;;;15.13;7.82;;;;;;;;;;5067806;28;20505;-62
2024/02/28 01:41:18;;;;;;;13.70;7.75;;;;;;;;;;5076162;28;20078;-62
2024/02/28 01:43:47;;;;;;;14.55;7.55;;;;;;;;;;5074592;28;20110;-61
2024/02/28 01:46:23;;;;;;;14.75;8.02;;;;;;;;;;5078623;28;20049;-62
2024/02/28 01:48:51;;;;;;;14.15;7.47;;;;;;;;;;5077475;28;20493;-63
2024/02/28 01:51:20;;;;;;;13.48;7.50;;;;;;;;;;5070711;28;20404;-63
2024/02/28 01:53:48;;;;;;;15.98;8.32;;;;;;;;;;5072079;28;20055;-63
2024/02/28 01:56:17;;;;;;;13.48;7.57;;;;;;;;;;5068221;28;20060;-62
2024/02/28 01:58:48;;;;;;;15.85;7.70;;;;;;;;;;5076029;28;20082;-62
2024/02/28 02:01:16;;;;;;;13.30;7.30;;;;;;;;;;5076897;28;20096;-62
2024/02/28 02:03:45;;;;;;;13.50;7.97;;;;;;;;;;5069673;28;20040;-62
2024/02/28 02:06:14;;;;;;;13.15;7.75;;;;;;;;;;5078312;28;20127;-62
2024/02/28 02:08:43;;;;;;;17.48;8.38;;;;;;;;;;5079690;28;20048;-61
2024/02/28 02:11:13;;;;;;;15.90;8.50;;;;;;;;;;5088791;28;20476;-62
2024/02/28 02:13:50;;;;;;;12.90;7.88;;;;;;;;;;5091177;28;20105;-63
2024/02/28 02:16:19;;;;;;;13.70;7.30;;;;;;;;;;5100094;28;20357;-62
2024/02/28 02:18:49;;;;;;;15.02;7.47;;;;;;;;;;5089883;28;20055;-61
2024/02/28 02:21:19;;;;;;;14.00;7.78;;;;;;;;;;5088673;28;20051;-63
2024/02/28 02:23:49;;;;;;;13.65;7.82;;;;;;;;;;5095732;28;20052;-62
2024/02/28 02:26:17;;;;;;;14.02;8.25;;;;;;;;;;5095093;28;20139;-62
2024/02/28 02:28:45;;;;;;;12.85;7.95;;;;;;;;;;5098983;28;20097;-62
2024/02/28 02:31:14;;;;;;;14.68;7.90;;;;;;;;;;5088308;28;20816;-61
2024/02/28 02:33:43;;;;;;;17.40;8.88;;;;;;;;;;5092746;28;20138;-61
2024/02/28 02:36:12;;;;;;;15.68;8.75;;;;;;;;;;5089276;28;20093;-62
2024/02/28 02:38:40;;;;;;;14.90;8.38;;;;;;;;;;5093417;28;20138;-62
2024/02/28 02:41:10;;;;;;;17.92;8.65;;;;;;;;;;5087973;28;20051;-61
2024/02/28 02:43:38;;;;;;;13.68;7.60;;;;;;;;;;5094018;28;20090;-62
2024/02/28 02:46:06;;;;;;;14.40;7.78;;;;;;;;;;5105230;28;20122;-62
2024/02/28 02:48:35;;;;;;;15.40;8.35;;;;;;;;;;5091880;28;20039;-62
2024/02/28 02:51:03;;;;;;;18.13;8.60;;;;;;;;;;5092758;28;20481;-62
2024/02/28 02:53:32;;;;;;;16.80;8.93;;;;;;;;;;5088566;28;20094;-62
2024/02/28 02:56:00;;;;;;;16.42;8.35;;;;;;;;;;5095167;28;20049;-61
2024/02/28 02:58:30;;;;;;;13.18;7.63;;;;;;;;;;5093931;28;20044;-62
2024/02/28 03:00:58;;;;;;;15.70;8.02;;;;;;;;;;5094570;28;20485;-63
2024/02/28 03:03:27;;;;;;;14.13;8.10;;;;;;;;;;5095135;28;20143;-62
2024/02/28 03:05:55;;;;;;;18.30;8.55;;;;;;;;;;5089035;28;20048;-60
2024/02/28 03:08:24;;;;;;;20.15;8.65;;;;;;;;;;5094824;28;20480;-61
2024/02/28 03:10:52;;;;;;;17.50;9.40;;;;;;;;;;5095543;28;20109;-62
2024/02/28 03:13:21;;;;;;;15.18;8.02;;;;;;;;;;5098495;28;20056;-64
2024/02/28 03:15:50;;;;;;;15.77;8.45;;;;;;;;;;5097629;28;20128;-62
2024/02/28 03:18:19;;;;;;;16.67;8.52;;;;;;;;;;5100963;28;20385;-62
2024/02/28 03:20:47;;;;;;;16.85;8.45;;;;;;;;;;5089733;28;20056;-62
2024/02/28 03:23:16;;;;;;;15.27;8.82;;;;;;;;;;5091836;28;20517;-62
2024/02/28 03:25:45;;;;;;;16.05;8.82;;;;;;;;;;5103256;28;20085;-61
2024/02/28 03:28:13;;;;;;;16.58;8.75;;;;;;;;;;5095286;28;20460;-62
2024/02/28 03:30:41;;;;;;;18.13;9.52;;;;;;;;;;5091816;28;20055;-61
2024/02/28 03:33:11;;;;;;;16.30;8.25;;;;;;;;;;5092554;28;20138;-62
2024/02/28 03:35:40;;;;;;;17.70;8.35;;;;;;;;;;5108431;28;20472;-62
2024/02/28 03:38:08;;;;;;;16.50;9.40;;;;;;;;;;5090710;28;20076;-62
2024/02/28 03:40:37;;;;;;;14.43;7.82;;;;;;;;;;5088256;28;20044;-63
2024/02/28 03:43:05;;;;;;;16.20;8.10;;;;;;;;;;5085215;28;20124;-63
2024/02/28 03:45:38;;;;;;;16.67;8.00;;;;;;;;;;5081466;28;20536;-62
2024/02/28 03:48:07;;;;;;;18.45;9.30;;;;;;;;;;5103262;28;20052;-62
2024/02/28 03:50:37;;;;;;;18.10;9.77;;;;;;;;;;5101307;28;20045;-62
2024/02/28 03:53:06;;;;;;;15.32;8.93;;;;;;;;;;5090123;28;20159;-63
2024/02/28 03:55:34;;;;;;;18.15;9.00;;;;;;;;;;5097454;28;20048;-62
2024/02/28 03:58:03;;;;;;;17.80;8.60;;;;;;;;;;5090399;28;20044;-62
2024/02/28 04:00:32;;;;;;;17.27;9.35;;;;;;;;;;5096529;28;20109;-61
2024/02/28 04:03:00;;;;;;;18.05;9.07;;;;;;;;;;5092191;28;20048;-63
2024/02/28 04:05:29;;;;;;;15.45;7.97;;;;;;;;;;5089903;28;20389;-63
2024/02/28 04:07:59;;;;;;;18.23;8.25;;;;;;;;;;5091462;28;20083;-62
2024/02/28 04:10:27;;;;;;;16.05;8.63;;;;;;;;;;5087610;28;20048;-62
2024/02/28 04:12:56;;;;;;;17.42;9.15;;;;;;;;;;5098627;28;20082;-61
2024/02/28 04:15:25;;;;;;;18.35;10.05;;;;;;;;;;5097149;28;20044;-62
2024/02/28 04:17:54;;;;;;;18.55;9.60;;;;;;;;;;5103459;28;20043;-62
2024/02/28 04:20:23;;;;;;;16.70;8.82;;;;;;;;;;5095607;28;20048;-63
2024/02/28 04:22:51;;;;;;;22.30;10.20;;;;;;;;;;5090115;28;20451;-63
2024/02/28 04:25:21;;;;;;;17.80;8.98;;;;;;;;;;5089880;28;20101;-62
2024/02/28 04:27:49;;;;;;;17.95;9.02;;;;;;;;;;5092441;28;20087;-63
2024/02/28 04:30:18;;;;;;;20.00;9.98;;;;;;;;;;5088501;28;20493;-62
2024/02/28 04:32:46;;;;;;;18.90;9.15;;;;;;;;;;5089148;28;20113;-62
2024/02/28 04:35:18;;;;;;;18.77;9.85;;;;;;;;;;5093155;28;20048;-62
2024/02/28 04:37:47;;;;;;;16.60;9.35;;;;;;;;;;5093082;28;20044;-61
2024/02/28 04:40:16;;;;;;;19.15;9.27;;;;;;;;;;5087682;28;20555;-61
2024/02/28 04:42:46;;;;;;;17.98;9.25;;;;;;;;;;5090088;28;20048;-63
2024/02/28 04:45:14;;;;;;;21.48;8.98;;;;;;;;;;5088916;28;20404;-61
2024/02/28 04:47:43;;;;;;;17.80;9.70;;;;;;;;;;5089038;28;20133;-61
2024/02/28 04:50:12;;;;;;;17.17;9.05;;;;;;;;;;5090162;28;20127;-61
2024/02/28 04:52:41;;;;;;;19.13;9.45;;;;;;;;;;5086352;28;20041;-62
2024/02/28 04:55:09;;;;;;;19.65;10.27;;;;;;;;;;5097180;28;20046;-61
2024/02/28 04:57:38;;;;;;;17.95;8.95;;;;;;;;;;5090718;28;20044;-61
2024/02/28 05:00:09;;;;;;;19.08;9.60;;;;;;;;;;5089404;28;20047;-62
2024/02/28 05:02:37;;;;;;;19.27;9.73;;;;;;;;;;5092567;28;20101;-61
2024/02/28 05:05:06;;;;;;;20.20;9.18;;;;;;;;;;5089712;28;20048;-62
2024/02/28 05:07:35;;;;;;;18.45;10.20;;;;;;;;;;5086534;28;20062;-62
2024/02/28 05:10:03;;;;;;;19.05;8.93;;;;;;;;;;5090789;28;20036;-62
2024/02/28 05:12:32;;;;;;;18.63;9.70;;;;;;;;;;5096451;28;20336;-61
2024/02/28 05:15:00;;;;;;;15.02;8.50;;;;;;;;;;5090131;28;20048;-61
2024/02/28 05:17:30;;;;;;;17.00;8.75;;;;;;;;;;5090176;28;20068;-62
2024/02/28 05:19:58;;;;;;;14.82;8.82;;;;;;;;;;5084180;28;20381;-62
2024/02/28 05:22:27;;;;;;;17.70;9.57;;;;;;;;;;5094146;28;20428;-62
2024/02/28 05:24:55;;;;;;;19.40;9.20;;;;;;;;;;5079760;28;20124;-62
2024/02/28 05:27:24;;;;;;;21.58;9.73;;;;;;;;;;5089363;28;20481;-62
2024/02/28 05:29:52;;;;;;;18.67;9.63;;;;;;;;;;5088918;28;20063;-61
2024/02/28 05:32:21;;;;;;;18.85;9.65;;;;;;;;;;5088586;28;20048;-62
2024/02/28 05:34:51;;;;;;;22.10;10.48;;;;;;;;;;5089551;28;20060;-63
2024/02/28 05:37:19;;;;;;;20.83;10.10;;;;;;;;;;5086194;28;20036;-62
2024/02/28 05:39:48;;;;;;;22.15;10.07;;;;;;;;;;5086499;28;20105;-61
2024/02/28 05:42:21;;;;;;;19.75;9.75;;;;;;;;;;5086720;28;20055;-61
2024/02/28 05:44:50;;;;;;;24.80;10.13;;;;;;;;;;5081958;28;20044;-62
2024/02/28 05:47:18;;;;;;;18.00;9.55;;;;;;;;;;5085471;28;20542;-62
2024/02/28 05:49:55;;;;;;;17.65;9.32;;;;;;;;;;5096834;28;20108;-62
2024/02/28 05:52:25;;;;;;;20.55;9.27;;;;;;;;;;5087988;28;20048;-63
2024/02/28 05:54:53;;;;;;;19.27;9.25;;;;;;;;;;5082866;28;20048;-61
2024/02/28 05:57:23;;;;;;;22.77;10.88;;;;;;;;;;5083010;28;20582;-62
2024/02/28 05:59:52;;;;;;;18.60;9.68;;;;;;;;;;5083259;28;20522;-62
2024/02/28 06:02:20;;;;;;;21.77;10.57;;;;;;;;;;5081446;28;20048;-62
2024/02/28 06:04:48;;;;;;;20.60;10.65;;;;;;;;;;5081388;28;20496;-61
2024/02/28 06:07:18;;;;;;;19.48;9.77;;;;;;;;;;5078315;28;20052;-63
2024/02/28 06:09:47;;;;;;;23.05;10.40;;;;;;;;;;5062301;28;20056;-63
2024/02/28 06:12:15;;;;;;;19.63;9.48;;;;;;;;;;5043039;28;20053;-61
2024/02/28 06:14:44;;;;;;;22.88;10.57;;;;;;;;;;5062063;28;20078;-64
2024/02/28 06:17:12;;;;;;;23.17;10.82;;;;;;;;;;5057408;28;20482;-63
2024/02/28 06:19:41;;;;;;;21.55;10.13;;;;;;;;;;5056664;28;20060;-61
2024/02/28 06:22:09;;;;;;;20.77;10.45;;;;;;;;;;5058618;28;20118;-62
2024/02/28 06:24:39;;;;;;;23.77;12.05;;;;;;;;;;5054212;28;20048;-64
2024/02/28 06:27:12;;;;;;;21.20;10.68;;;;;;;;;;5056375;28;20037;-62
2024/02/28 06:29:40;;;;;;;22.13;11.00;;;;;;;;;;5059339;28;20075;-62
2024/02/28 06:32:09;;;;;;;25.52;11.18;;;;;;;;;;5057171;28;20044;-62
2024/02/28 06:34:37;;;;;;;21.17;10.82;;;;;;;;;;5054177;28;20437;-61
2024/02/28 06:37:05;;;;;;;21.45;10.88;;;;;;;;;;5055685;28;20405;-61
2024/02/28 06:39:34;;;;;;;25.45;11.45;;;;;;;;;;5054893;28;20088;-64
2024/02/28 06:42:04;;;;;;;21.15;10.57;;;;;;;;;;5057799;28;20413;-61
2024/02/28 06:44:32;;;;;;;22.30;10.48;;;;;;;;;;5060874;28;20045;-61
2024/02/28 06:47:00;;;;;;;24.55;11.02;;;;;;;;;;5060510;28;20357;-62
2024/02/28 06:49:29;;;;;;;21.45;10.35;;;;;;;;;;5060842;28;20133;-61
2024/02/28 06:51:59;;;;;;;21.13;10.93;;;;;;;;;;5059453;28;20037;-62
2024/02/28 06:54:27;;;;;;;25.70;11.95;;;;;;;;;;5061505;28;20444;-63
2024/02/28 06:56:56;;;;;;;22.58;10.77;;;;;;;;;;5060542;28;20489;-64
2024/02/28 06:59:26;;;;;;;21.83;10.32;;;;;;;;;;5058057;28;20071;-62
2024/02/28 07:01:54;;;;;;;23.95;10.27;;;;;;;;;;5060000;28;20635;-61
2024/02/28 07:04:23;;;;;;;21.65;10.88;;;;;;;;;;5058746;28;20056;-63
2024/02/28 07:06:51;;;;;;;21.05;10.07;;;;;;;;;;5060994;28;20110;-61
2024/02/28 07:09:20;;;;;;;20.90;10.73;;;;;;;;;;5080658;28;20130;-64
2024/02/28 07:11:48;;;;;;;24.63;11.35;;;;;;;;;;5081165;28;20124;-62
2024/02/28 07:14:17;;;;;;;27.42;12.23;;;;;;;;;;5081052;28;20052;-63
2024/02/28 07:16:48;;;;;;;24.73;11.35;;;;;;;;;;5083248;28;20074;-63
2024/02/28 07:19:17;;;;;;;22.08;10.95;;;;;;;;;;5082677;28;20109;-62
2024/02/28 07:21:46;;;;;;;25.92;12.35;;;;;;;;;;5083893;28;20056;-63
2024/02/28 07:24:15;;;;;;;24.33;12.30;;;;;;;;;;5081907;28;20137;-61
2024/02/28 07:26:43;;;;;;;32.10;12.90;;;;;;;;;;5084321;28;20044;-61
2024/02/28 07:29:12;;;;;;;24.50;11.77;;;;;;;;;;5083474;28;20056;-62
2024/02/28 07:31:40;;;;;;;29.42;12.32;;;;;;;;;;5082864;28;20454;-62
2024/02/28 07:34:10;;;;;;;29.45;12.35;;;;;;;;;;5084282;28;20174;-60
2024/02/28 07:36:39;;;;;;;26.77;12.48;;;;;;;;;;5084243;28;20055;-63
2024/02/28 07:39:07;;;;;;;28.23;12.35;;;;;;;;;;5084775;28;20052;-62
2024/02/28 07:41:36;;;;;;;24.73;11.55;;;;;;;;;;5083578;28;20055;-62
2024/02/28 07:44:06;;;;;;;26.50;13.25;;;;;;;;;;5084949;28;20051;-65
2024/02/28 07:46:35;;;;;;;25.23;12.30;;;;;;;;;;5083860;28;20424;-63
2024/02/28 07:49:03;;;;;;;28.80;12.85;;;;;;;;;;5083868;28;20067;-65
2024/02/28 07:51:34;;;;;;;25.13;11.75;;;;;;;;;;5084247;28;20063;-62
2024/02/28 07:54:02;;;;;;;27.13;12.60;;;;;;;;;;5080790;28;20056;-65
2024/02/28 07:56:31;;;;;;;25.63;12.07;;;;;;;;;;5082779;28;20055;-61
2024/02/28 07:58:59;;;;;;;33.90;12.98;;;;;;;;;;5084289;28;20437;-64
2024/02/28 08:01:28;;;;;;;32.53;13.48;;;;;;;;;;5085280;28;20101;-62
2024/02/28 08:03:56;;;;;;;28.55;12.68;;;;;;;;;;5082132;28;20040;-62
2024/02/28 08:06:25;;;;;;;29.25;13.85;;;;;;;;;;5082673;28;20402;-61
2024/02/28 08:08:55;;;;;;;30.23;12.98;;;;;;;;;;5082105;28;20056;-60
2024/02/28 08:11:24;;;;;;;26.90;13.00;;;;;;;;;;5079686;28;20080;-62
2024/02/28 08:13:53;;;;;;;28.00;12.13;;;;;;;;;;5080558;28;20048;-62
2024/02/28 08:16:22;;;;;;;26.13;12.13;;;;;;;;;;5081996;28;20064;-65
2024/02/28 08:18:50;;;;;;;29.52;12.00;;;;;;;;;;5079063;28;20047;-63
2024/02/28 08:21:19;;;;;;;27.42;12.77;;;;;;;;;;5079885;28;20168;-65
2024/02/28 08:23:48;;;;;;;30.10;13.32;;;;;;;;;;5081102;28;20520;-63
2024/02/28 08:26:18;;;;;;;27.48;11.23;;;;;;;;;;5079689;28;20051;-64
2024/02/28 08:28:46;;;;;;;27.38;12.88;;;;;;;;;;5077830;28;20056;-62
2024/02/28 08:31:15;;;;;;;29.40;13.95;;;;;;;;;;5078164;28;20047;-64
2024/02/28 08:33:43;;;;;;;33.30;13.00;;;;;;;;;;5077670;28;20044;-62
2024/02/28 08:36:12;;;;;;;28.13;12.85;;;;;;;;;;5081371;28;20141;-62
2024/02/28 08:38:40;;;;;;;31.55;13.35;;;;;;;;;;5078764;28;20140;-63
2024/02/28 08:41:09;;;;;;;29.48;12.93;;;;;;;;;;5078846;28;20062;-61
2024/02/28 08:43:40;;;;;;;31.40;13.18;;;;;;;;;;5081236;28;20044;-61
2024/02/28 08:46:09;;;;;;;29.65;13.20;;;;;;;;;;5079531;28;20097;-61
2024/02/28 08:48:37;;;;;;;29.17;13.10;;;;;;;;;;5080383;28;20071;-60
2024/02/28 08:51:06;;;;;;;28.48;12.70;;;;;;;;;;5081116;28;20128;-61
2024/02/28 08:53:34;;;;;;;28.08;12.98;;;;;;;;;;5080271;28;20040;-62
2024/02/28 08:56:03;;;;;;;30.33;13.20;;;;;;;;;;5080177;28;20067;-62
2024/02/28 08:58:31;;;;;;;28.27;12.45;;;;;;;;;;5077890;28;20580;-60
2024/02/28 09:01:01;;;;;;;27.80;12.00;;;;;;;;;;5080385;28;20063;-60
2024/02/28 09:03:29;;;;;;;30.55;13.40;;;;;;;;;;5080023;28;20122;-63
2024/02/28 09:05:58;;;;;;;30.52;13.07;;;;;;;;;;5078922;28;20143;-64
2024/02/28 09:08:26;;;;;;;25.13;12.45;;;;;;;;;;5075734;28;20048;-62
2024/02/28 09:10:55;;;;;;;28.55;13.05;;;;;;;;;;5080772;28;20051;-60
2024/02/28 09:13:23;;;;;;;27.35;13.25;;;;;;;;;;5075317;28;20080;-61
2024/02/28 09:15:52;;;;;;;27.45;12.18;;;;;;;;;;5078658;28;20109;-62
2024/02/28 09:18:24;;;;;;;27.60;12.68;;;;;;;;;;5076577;28;20047;-62
2024/02/28 09:20:53;;;;;;;31.83;13.13;;;;;;;;;;5075373;28;20048;-60
2024/02/28 09:23:21;;;;;;;24.63;12.40;;;;;;;;;;5075367;28;21106;-63
2024/02/28 09:25:50;;;;;;;24.38;12.00;;;;;;;;;;5077106;28;20044;-61
2024/02/28 09:28:18;;;;;;;22.27;12.02;;;;;;;;;;5078366;28;20052;-61
2024/02/28 09:30:47;;;;;;;26.65;12.10;;;;;;;;;;5075718;28;20048;-61
2024/02/28 09:33:21;;;;;;;25.77;11.52;;;;;;;;;;5075521;28;20635;-61
2024/02/28 09:35:51;;;;;;;26.08;12.30;;;;;;;;;;5076740;28;20376;-62
2024/02/28 09:38:20;;;;;;;26.35;13.05;;;;;;;;;;5076689;28;20067;-62
2024/02/28 09:40:49;;;;;;;23.40;11.95;;;;;;;;;;5077990;28;20516;-61
2024/02/28 09:43:21;;;;;;;28.85;11.93;;;;;;;;;;5078208;28;20546;-64
2024/02/28 09:45:49;;;;;;;27.50;12.13;;;;;;;;;;5076808;28;20105;-64
2024/02/28 09:48:18;;;;;;;26.80;12.65;;;;;;;;;;5076326;28;20631;-59
2024/02/28 09:50:49;;;;;;;22.65;11.35;;;;;;;;;;5076461;28;20059;-65
2024/02/28 09:53:18;;;;;;;28.67;12.93;;;;;;;;;;5076690;28;20496;-64
2024/02/28 09:55:47;;;;;;;26.63;13.10;;;;;;;;;;5077982;28;20040;-62
2024/02/28 09:58:16;;;;;;;23.70;11.38;;;;;;;;;;5079329;28;20177;-59
2024/02/28 10:00:46;;;;;;;23.13;11.48;;;;;;;;;;5077506;28;20441;-61
2024/02/28 10:03:15;;;;;;;26.00;12.18;;;;;;;;;;5078904;28;20721;-60
2024/02/28 10:05:44;;;;;;;24.10;11.95;;;;;;;;;;5078391;28;20073;-61
2024/02/28 10:08:14;;;;;;;26.98;13.25;;;;;;;;;;5072365;28;20066;-62
2024/02/28 10:10:49;;;;;;;21.92;11.10;;;;;;;;;;5068453;28;20421;-62
2024/02/28 10:13:17;;;;;;;;;;;;;;;;;;5072057;28;20056;-62
2024/02/28 10:15:46;;;;;;;23.02;11.10;;;;;;;;;;5072137;28;19928;-62
2024/02/28 10:18:14;;;;;;;26.20;12.18;;;;;;;;;;5071056;28;20535;-61
2024/02/28 10:20:43;;;;;;;25.33;12.80;;;;;;;;;;5072061;28;20054;-64
2024/02/28 10:23:11;;;;;;;20.77;10.93;;;;;;;;;;5070203;28;20102;-63
2024/02/28 10:25:47;;;;;;;24.75;12.38;;;;;;;;;;5070903;28;20167;-61
2024/02/28 10:28:27;;;;;;;25.42;11.98;;;;;;;;;;5066058;28;20359;-63
2024/02/28 10:30:56;;;;;;;24.42;10.48;;;;;;;;;;5005230;28;20052;-62
2024/02/28 10:33:28;;;;;;;26.38;12.50;;;;;;;;;;5062553;28;20036;-61
2024/02/28 10:35:57;;;;;;;27.20;12.82;;;;;;;;;;5068575;28;20421;-62
2024/02/28 10:38:27;;;;;;;23.13;11.27;;;;;;;;;;5067025;28;20036;-63
2024/02/28 10:40:57;;;;;;;24.27;11.63;;;;;;;;;;5070511;28;20047;-65
2024/02/28 10:43:29;;;;;;;27.38;13.02;;;;;;;;;;5070409;28;20164;-61
2024/02/28 10:45:59;;;;;;;23.15;11.63;;;;;;;;;;5072929;28;20044;-63
2024/02/28 10:48:49;;;;;;;25.00;12.82;;;;;;;;;;5069113;28;20067;-62
2024/02/28 10:51:19;;;;;;;23.85;12.25;;;;;;;;;;5070256;28;20484;-62
2024/02/28 10:53:50;;;;;;;24.83;11.30;;;;;;;;;;5068635;28;20048;-66
2024/02/28 10:56:20;;;;;;;23.40;12.15;;;;;;;;;;5073589;28;20384;-62
2024/02/28 10:58:52;;;;;;;23.67;12.07;;;;;;;;;;5072020;28;20064;-62
2024/02/28 11:01:21;;;;;;;27.73;13.63;;;;;;;;;;5072507;28;20098;-65
2024/02/28 11:03:51;;;;;;;24.33;12.15;;;;;;;;;;5073632;28;20484;-64
2024/02/28 11:06:21;;;;;;;26.88;13.70;;;;;;;;;;5066438;28;20048;-66
2024/02/28 11:08:53;;;;;;;28.90;14.18;;;;;;;;;;5079628;28;20129;-62
2024/02/28 11:11:23;;;;;;;25.23;13.00;;;;;;;;;;5083386;28;20778;-63
2024/02/28 11:13:55;;;;;;;28.33;13.07;;;;;;;;;;5083102;28;20113;-61
2024/02/28 11:16:30;;;;;;;23.67;12.55;;;;;;;;;;5081278;28;20060;-62
2024/02/28 11:18:58;;;;;;;;;;;;;;;;;;5082949;28;20048;-61
2024/02/28 11:21:27;;;;;;;28.83;12.88;;;;;;;;;;5085491;28;20015;-61
2024/02/28 11:23:59;;;;;;;25.50;13.00;;;;;;;;;;5082827;28;20040;-62
2024/02/28 11:26:29;;;;;;;29.13;13.93;;;;;;;;;;5082342;28;20055;-65
2024/02/28 11:28:57;;;;;;;25.98;13.40;;;;;;;;;;5083050;28;20448;-62
2024/02/28 11:31:26;;;;;;;30.20;14.23;;;;;;;;;;5082706;28;20044;-61
2024/02/28 11:33:54;;;;;;;28.63;14.20;;;;;;;;;;5080219;28;20056;-62
2024/02/28 11:36:23;;;;;;;25.02;12.57;;;;;;;;;;5085232;28;20091;-61
2024/02/28 11:38:52;;;;;;;26.05;13.32;;;;;;;;;;5085369;28;20054;-63
2024/02/28 11:41:27;;;;;;;26.80;12.63;;;;;;;;;;5086347;28;20382;-62
2024/02/28 11:43:58;;;;;;;26.45;12.63;;;;;;;;;;5086581;28;20097;-61
2024/02/28 11:46:26;;;;;;;25.00;12.55;;;;;;;;;;5087547;28;20044;-61
2024/02/28 11:48:55;;;;;;;27.83;12.90;;;;;;;;;;5086392;28;20059;-62
2024/02/28 11:51:24;;;;;;;25.60;12.23;;;;;;;;;;5085696;28;20497;-62
2024/02/28 11:53:53;;;;;;;27.58;13.60;;;;;;;;;;5085418;28;20054;-61
2024/02/28 11:56:21;;;;;;;27.02;12.80;;;;;;;;;;5086116;28;20040;-61
2024/02/28 11:58:53;;;;;;;24.90;12.48;;;;;;;;;;5085248;28;20496;-61
2024/02/28 12:01:33;;;;;;;25.05;11.82;;;;;;;;;;5087455;28;20048;-62
2024/02/28 12:04:01;;;;;;;25.58;12.63;;;;;;;;;;5086659;28;20035;-62
2024/02/28 12:06:30;;;;;;;23.00;11.68;;;;;;;;;;5086652;28;20121;-61
2024/02/28 12:08:59;;;;;;;24.20;12.20;;;;;;;;;;5085505;28;20189;-61
2024/02/28 12:11:29;;;;;;;21.42;11.52;;;;;;;;;;5087642;28;20047;-62
2024/02/28 12:13:58;;;;;;;23.60;11.82;;;;;;;;;;5082781;28;20066;-61
2024/02/28 12:16:28;;;;;;;22.10;11.68;;;;;;;;;;5083651;28;20142;-62
2024/02/28 12:18:56;;;;;;;26.92;11.25;;;;;;;;;;5082924;28;20048;-64
2024/02/28 12:21:25;;;;;;;23.27;11.45;;;;;;;;;;5083756;28;20055;-60
2024/02/28 12:23:53;;;;;;;24.85;11.48;;;;;;;;;;5084682;28;20048;-60
2024/02/28 12:26:22;;;;;;;23.42;11.43;;;;;;;;;;5083560;28;20064;-63
2024/02/28 12:28:50;;;;;;;23.70;11.73;;;;;;;;;;5084675;28;20051;-60
2024/02/28 12:31:19;;;;;;;20.05;11.07;;;;;;;;;;5082966;28;20140;-60
2024/02/28 12:33:49;;;;;;;24.30;11.77;;;;;;;;;;5083814;28;20048;-61
2024/02/28 12:36:17;;;;;;;21.40;10.55;;;;;;;;;;5082620;28;20056;-62
2024/02/28 12:38:45;;;;;;;22.95;11.20;;;;;;;;;;5081151;28;20050;-62
2024/02/28 12:41:14;;;;;;;23.00;11.38;;;;;;;;;;5082578;28;20602;-61
2024/02/28 12:43:43;;;;;;;22.98;11.85;;;;;;;;;;5079618;28;20045;-61
2024/02/28 12:46:11;;;;;;;22.60;11.85;;;;;;;;;;5083409;28;20051;-60
2024/02/28 12:48:40;;;;;;;22.83;11.23;;;;;;;;;;5081970;28;20052;-60
2024/02/28 12:51:12;;;;;;;21.60;10.38;;;;;;;;;;5081420;28;20044;-61
2024/02/28 12:53:41;;;;;;;19.05;10.02;;;;;;;;;;5080568;28;20051;-64
2024/02/28 12:56:10;;;;;;;22.08;10.98;;;;;;;;;;5082913;28;20120;-63
2024/02/28 12:58:38;;;;;;;21.00;10.73;;;;;;;;;;5083476;28;20075;-60
2024/02/28 13:01:08;;;;;;;22.25;10.30;;;;;;;;;;5084069;28;20048;-61
2024/02/28 13:03:36;;;;;;;21.85;11.07;;;;;;;;;;5084916;28;20486;-62
2024/02/28 13:06:05;;;;;;;26.15;11.10;;;;;;;;;;5085744;28;20131;-61
2024/02/28 13:08:35;;;;;;;24.10;11.90;;;;;;;;;;5084326;28;20064;-62
2024/02/28 13:11:04;;;;;;;21.75;11.15;;;;;;;;;;5085286;28;20123;-61
2024/02/28 13:13:32;;;;;;;23.83;11.15;;;;;;;;;;5085616;28;20536;-61
2024/02/28 13:16:01;;;;;;;22.25;10.50;;;;;;;;;;5084760;28;20467;-62
2024/02/28 13:18:30;;;;;;;22.73;10.57;;;;;;;;;;5084992;28;20046;-62
2024/02/28 13:20:58;;;;;;;24.58;11.00;;;;;;;;;;5079588;28;20146;-62
2024/02/28 13:23:28;;;;;;;22.48;11.65;;;;;;;;;;5083868;28;20048;-61
2024/02/28 13:25:58;;;;;;;22.10;10.15;;;;;;;;;;5083522;28;20109;-63
2024/02/28 13:28:29;;;;;;;21.00;10.57;;;;;;;;;;5084239;28;20097;-61
2024/02/28 13:30:58;;;;;;;24.02;11.45;;;;;;;;;;5082311;28;20075;-64
2024/02/28 13:33:26;;;;;;;23.23;11.88;;;;;;;;;;5079384;28;21624;-62
2024/02/28 13:35:55;;;;;;;20.90;11.07;;;;;;;;;;5080047;28;20394;-59
2024/02/28 13:38:24;;;;;;;23.27;11.27;;;;;;;;;;5080392;28;20055;-62
2024/02/28 13:40:52;;;;;;;23.20;11.10;;;;;;;;;;5079805;28;20048;-63
2024/02/28 13:43:22;;;;;;;22.30;11.32;;;;;;;;;;5080815;28;20052;-66
2024/02/28 13:45:52;;;;;;;23.25;10.48;;;;;;;;;;5080104;28;20568;-62
2024/02/28 13:48:21;;;;;;;21.38;10.82;;;;;;;;;;5079420;28;20082;-63
2024/02/28 13:50:50;;;;;;;20.70;10.93;;;;;;;;;;5080664;28;20128;-64
2024/02/28 13:53:19;;;;;;;21.83;10.63;;;;;;;;;;5080779;28;20048;-62
2024/02/28 13:55:47;;;;;;;24.45;11.52;;;;;;;;;;5081123;28;20040;-61
2024/02/28 13:58:17;;;;;;;21.85;10.82;;;;;;;;;;5078747;28;20068;-62
2024/02/28 14:00:47;;;;;;;23.63;11.60;;;;;;;;;;5074808;28;20563;-61
2024/02/28 14:03:17;;;;;;;22.80;10.43;;;;;;;;;;5079050;28;21355;-65
2024/02/28 14:05:45;;;;;;;21.75;11.63;;;;;;;;;;5079665;28;20048;-64
2024/02/28 14:08:14;;;;;;;25.88;11.73;;;;;;;;;;5077945;28;20048;-62
2024/02/28 14:10:42;;;;;;;24.80;10.98;;;;;;;;;;5076810;28;20048;-64
2024/02/28 14:13:12;;;;;;;21.25;10.40;;;;;;;;;;5079795;28;20054;-63
2024/02/28 14:15:40;;;;;;;21.77;11.48;;;;;;;;;;5077293;28;20133;-61
2024/02/28 14:18:10;;;;;;;21.85;10.43;;;;;;;;;;5075461;28;20113;-61
2024/02/28 14:20:39;;;;;;;22.38;10.65;;;;;;;;;;5077847;28;20060;-65
2024/02/28 14:23:07;;;;;;;23.70;11.65;;;;;;;;;;5078227;28;20039;-65
2024/02/28 14:25:36;;;;;;;21.17;10.43;;;;;;;;;;5078407;28;20044;-64
2024/02/28 14:28:04;;;;;;;20.02;10.43;;;;;;;;;;5076286;28;20121;-62
2024/02/28 14:30:33;;;;;;;20.85;10.80;;;;;;;;;;5078303;28;20524;-63
2024/02/28 14:33:02;;;;;;;20.70;10.10;;;;;;;;;;5077166;28;20076;-62
2024/02/28 14:35:39;;;;;;;21.98;11.07;;;;;;;;;;5078503;28;20040;-62